Saturday, December 15, 2018, 1:18 PM EST
Back to Local

KDYL, Doylestown Airport

Location: Doylestown, PA, United States Lat: 40.333
Local Time: 1:18 PM EST (18:18 GMT) Lon: -75.117
Time Zone: US/Eastern Elev: 393 ft

Show me the last for .
Show Decoded

2018-12-15 12:54 METAR KDYL 151754Z AUTO 03005KT 10SM SCT004 BKN021 OVC033 10/09 A3008 RMK AO2
                 RAE1655 SLP188 P0000 60002 T01000089 10100 20078 56017 =
2018-12-15 11:54 METAR KDYL 151654Z AUTO 02006KT 4SM -RA BR BKN004 OVC019 09/09 A3010 RMK AO2
                 RAB04 SLP194 P0002 T00940089 =
2018-12-15 11:38 METAR KDYL 151638Z AUTO 04006KT 4SM -RA BR BKN004 OVC016 09/08 A3011 RMK AO2
                 RAB04 P0001 T00940083 =
2018-12-15 11:24 METAR KDYL 151624Z AUTO 03006KT 4SM -RA BR SCT004 OVC016 09/08 A3011 RMK AO2
                 RAB04 P0001 T00940083 =
2018-12-15 10:54 METAR KDYL 151554Z AUTO 04007KT 7SM OVC003 09/08 A3011 RMK AO2 SLP200 T00940083
                 =
2018-12-15 10:19 METAR KDYL 151519Z AUTO 04007KT 6SM BR BKN003 OVC009 09/08 A3013 RMK AO2
                 T00940083 =
2018-12-15 09:54 METAR KDYL 151454Z AUTO 04007KT 8SM OVC002 09/08 A3013 RMK AO2 SLP207 T00890078
                 52002 =
2018-12-15 09:34 METAR KDYL 151434Z AUTO 02010KT 5SM BR OVC001 09/08 A3014 RMK AO2 T00890083 =
2018-12-15 09:25 METAR KDYL 151425Z AUTO 03007KT 2 1/2SM BR OVC002 09/08 A3014 RMK AO2 T00890083
                 =
2018-12-15 09:06 METAR KDYL 151406Z AUTO 04007KT 1 3/4SM BR OVC002 09/08 A3013 RMK AO2 T00890083
                 =
2018-12-15 08:54 METAR KDYL 151354Z AUTO 03006KT 6SM BR OVC002 09/08 A3013 RMK AO2 SLP208
                 T00890083 =
2018-12-15 08:32 METAR KDYL 151332Z AUTO 04006KT 3SM BR OVC002 08/08 A3013 RMK AO2 T00830078 =
2018-12-15 08:27 METAR KDYL 151327Z AUTO VRB06KT 1 1/2SM BR OVC002 08/08 A3013 RMK AO2 T00830078
                 =
2018-12-15 07:54 METAR KDYL 151254Z AUTO 04006KT 1/2SM FG VV002 08/07 A3013 RMK AO2 SLP205
                 T00830072 =
2018-12-15 07:47 METAR KDYL 151247Z AUTO 04006KT 1/2SM FG VV002 08/07 A3012 RMK AO2 T00780072 =
2018-12-15 07:32 METAR KDYL 151232Z AUTO 02006KT 1 1/2SM BR OVC002 08/07 A3012 RMK AO2 T00780072
                 =
2018-12-15 07:20 METAR KDYL 151220Z AUTO 03006KT 2 1/2SM BR OVC002 08/07 A3012 RMK AO2 T00780072
                 =
2018-12-15 06:54 METAR KDYL 151154Z AUTO 05005KT 3SM BR OVC002 08/07 A3013 RMK AO2 SLP205 60010
                 70030 T00780067 10078 20072 58006 =
2018-12-15 06:30 METAR KDYL 151130Z AUTO 03006KT 3SM BR OVC002 07/07 A3014 RMK AO2 T00720067 =
2018-12-15 05:54 METAR KDYL 151054Z AUTO 01005KT 1 1/4SM BR OVC002 07/07 A3014 RMK AO2 RAE54
                 SLP209 P0003 T00720067 =
2018-12-15 05:01 METAR KDYL 151001Z AUTO 00000KT 1 3/4SM -RA BR OVC002 08/07 A3014 RMK AO2 P0000
                 T00780067 =
2018-12-15 04:54 METAR KDYL 150954Z AUTO 00000KT 3SM -RA BR OVC002 08/07 A3014 RMK AO2 SLP211
                 P0000 T00780067 =
2018-12-15 04:52 METAR KDYL 150952Z AUTO 02003KT 3SM -RA BR OVC002 08/07 A3015 RMK AO2 P0000 =
2018-12-15 04:41 METAR KDYL 150941Z AUTO 00000KT 2SM -RA BR OVC002 08/07 A3015 RMK AO2 P0000
                 T00780067 =
2018-12-15 04:10 METAR KDYL 150910Z AUTO 03003KT 10SM -RA OVC002 08/07 A3017 RMK AO2 P0000
                 T00780067 =
2018-12-15 03:54 METAR KDYL 150854Z AUTO 02004KT 4SM -RA BR OVC003 08/07 A3018 RMK AO2 SLP221
                 P0003 60007 T00780067 58007 =
2018-12-15 03:52 METAR KDYL 150852Z AUTO 01005KT 3SM -RA BR OVC003 08/07 A3018 RMK AO2 P0002 =
2018-12-15 03:42 METAR KDYL 150842Z AUTO 02003KT 1 1/2SM -RA BR OVC004 08/07 A3018 RMK AO2 P0002
                 T00780072 =
2018-12-15 03:21 METAR KDYL 150821Z AUTO 04004KT 2 1/2SM -RA BR OVC004 08/07 A3019 RMK AO2 P0001
                 T00780072 =
2018-12-15 02:54 METAR KDYL 150754Z AUTO 04004KT 6SM -RA BR OVC004 08/07 A3020 RMK AO2 SLP228
                 P0001 T00780072 =
2018-12-15 02:49 METAR KDYL 150749Z AUTO 05004KT 5SM -RA BR OVC004 08/07 A3020 RMK AO2 P0001 =
2018-12-15 02:37 METAR KDYL 150737Z AUTO 04004KT 2SM -RA BR OVC004 08/07 A3020 RMK AO2 P0000
                 T00780072 =
2018-12-15 02:31 METAR KDYL 150731Z AUTO 02003KT 1 3/4SM -RA BR OVC006 08/07 A3020 RMK AO2 P0000
                 T00780072 =
2018-12-15 02:22 METAR KDYL 150722Z AUTO 00000KT 2SM -RA BR OVC006 08/07 A3020 RMK AO2 P0000
                 T00780072 =
2018-12-15 01:54 METAR KDYL 150654Z AUTO 03003KT 9SM -RA OVC007 08/07 A3020 RMK AO2 SLP228 P0003
                 T00780072 =
2018-12-15 00:54 METAR KDYL 150554Z AUTO 04004KT 6SM -RA BR FEW002 OVC008 08/07 A3020 RMK AO2
                 SLP229 P0005 60020 T00780072 10078 20067 56024 =
2018-12-15 00:25 METAR KDYL 150525Z AUTO 05003KT 3SM -RA BR FEW002 OVC005 08/07 A3021 RMK AO2
                 P0003 T00780072 =
2018-12-15 00:02 METAR KDYL 150502Z AUTO 04004KT 3SM -RA BR FEW004 BKN010 OVC016 08/07 A3022 RMK
                 AO2 P0001 T00780072 =
2018-12-14 23:54 METAR KDYL 150454Z AUTO 00000KT 2 1/2SM -RA BR BKN012 BKN016 OVC025 08/07 A3022
                 RMK AO2 SLP237 P0005 T00780072 400940022 =
2018-12-14 23:34 METAR KDYL 150434Z AUTO 05004KT 2SM -RA BR BKN025 OVC032 08/07 A3022 RMK AO2
                 P0003 T00780072 =
2018-12-14 23:18 METAR KDYL 150418Z AUTO 05003KT 1 1/2SM -RA BR SCT021 BKN036 OVC042 08/07 A3023
                 RMK AO2 P0002 T00780072 =
2018-12-14 23:11 METAR KDYL 150411Z AUTO 00000KT 2SM -RA BR SCT018 BKN036 OVC043 08/07 A3024 RMK
                 AO2 P0001 T00780072 =
2018-12-14 23:02 METAR KDYL 150402Z AUTO 05003KT 2SM -RA BR SCT014 BKN023 OVC046 08/07 A3024 RMK
                 AO2 P0000 T00780072 =
2018-12-14 22:54 METAR KDYL 150354Z AUTO 05003KT 2SM -RA BR BKN008 BKN025 OVC037 08/07 A3024 RMK
                 AO2 SLP245 P0006 T00780067 =
2018-12-14 22:46 METAR KDYL 150346Z AUTO 00000KT 1 1/2SM -RA BR FEW002 BKN008 OVC031 08/07 A3025
                 RMK AO2 P0005 T00780067 =
2018-12-14 22:35 METAR KDYL 150335Z AUTO 00000KT 1 3/4SM -RA BR BKN004 OVC027 08/07 A3025 RMK AO2
                 P0004 T00780067 =
2018-12-14 22:27 METAR KDYL 150327Z AUTO 00000KT 2SM -RA BR OVC002 08/07 A3026 RMK AO2 P0003
                 T00780067 =
2018-12-14 22:09 METAR KDYL 150309Z AUTO 00000KT 5SM -RA BR OVC002 07/07 A3027 RMK AO2 P0001
                 T00720067 =
2018-12-14 21:54 METAR KDYL 150254Z AUTO 00000KT 5SM -RA BR OVC003 08/07 A3027 RMK AO2 SLP254
                 P0003 60004 T00780067 56015 =
2018-12-14 21:37 METAR KDYL 150237Z AUTO 00000KT 4SM -RA BR BKN003 OVC014 07/07 A3028 RMK AO2
                 P0002 T00720067 =
2018-12-14 21:15 METAR KDYL 150215Z AUTO 00000KT 5SM -RA BR FEW004 BKN014 OVC080 08/07 A3029 RMK
                 AO2 P0001 T00780067 =
2018-12-14 20:54 METAR KDYL 150154Z AUTO 00000KT 3SM -RA BR SCT070 OVC085 07/06 A3029 RMK AO2
                 SLP261 P0000 T00720061 =
2018-12-14 19:54 METAR KDYL 150054Z AUTO 00000KT 6SM -RA BR OVC085 07/06 A3030 RMK AO2
                 RAB03E13B39 SLP264 P0001 T00720061 =
2018-12-14 18:54 METAR KDYL 142354Z AUTO 00000KT 10SM FEW055 OVC085 08/07 A3032 RMK AO2 RAE2256
                 SLP271 P0000 60000 T00780067 10094 20078 58003 =
2018-12-14 18:19 METAR KDYL 142319Z AUTO 00000KT 10SM SCT012 OVC090 08/07 A3032 RMK AO2 RAE2256
                 P0000 T00830072 =
2018-12-14 17:54 METAR KDYL 142254Z AUTO 00000KT 10SM -RA OVC012 08/07 A3033 RMK AO2 RAB16 SLP274
                 P0000 T00830072 =
2018-12-14 16:54 METAR KDYL 142154Z AUTO 00000KT 10SM OVC014 09/07 A3032 RMK AO2 RAB00E10 SLP273
                 P0000 T00890067 =
2018-12-14 15:54 METAR KDYL 142054Z AUTO 00000KT 10SM OVC013 09/07 A3033 RMK AO2 SLP274 T00940067
                 55001 =
2018-12-14 14:54 METAR KDYL 141954Z AUTO 15003KT 10SM BKN012 OVC065 09/07 A3032 RMK AO2 SLP273
                 T00940067 =
2018-12-14 13:54 METAR KDYL 141854Z AUTO VRB03KT 10SM FEW011 OVC065 09/07 A3033 RMK AO2 SLP275
                 T00940067 =
2018-12-14 13:50 METAR KDYL 141850Z AUTO 14004KT 10SM SCT011 OVC065 09/07 A3033 RMK AO2 =

Support USWX by starting your Amazon purchase here.